VIV622 MMMY-KLAX
Flight info
| Callsign | VIV622 |
|---|---|
| Flight time | 2h 47m |
| Altitude | 34000 |
| Route | GRALA1A GRALA UT11 OXALA/N0461F360 UT11 PPE J93 ASUTA DCT AMMOR OLAAA2 |
| Aircraft | A320/M-SDE3FGHIRWY/LB1 |
Departure
| Time | 2026-04-20 22:28 |
|---|---|
| Airport | Monterrey International Airport (MMMY) |
Arrival
| Time | 2026-04-21 01:16 |
|---|---|
| Airport | Los Angeles International Airport (KLAX) |
| Time | Latitude | Longitude | Altitude | Speed | Heading |
|---|---|---|---|---|---|
| 2026-04-20 21:50 | 25.77763 | -100.11329 | 1275 ft | 0 kts | 33° |
| 2026-04-20 22:14 | 25.77763 | -100.11330 | 1302 ft | 0 kts | 33° |
| 2026-04-20 22:14 | 25.77763 | -100.11329 | 1302 ft | 0 kts | 33° |
| 2026-04-20 22:15 | 25.77763 | -100.11330 | 1302 ft | 0 kts | 33° |
| 2026-04-20 22:19 | 25.77762 | -100.11330 | 1302 ft | 2 kts | 33° |
| 2026-04-20 22:19 | 25.77748 | -100.11340 | 1278 ft | 2 kts | 33° |
| 2026-04-20 22:19 | 25.77735 | -100.11350 | 1275 ft | 2 kts | 33° |
| 2026-04-20 22:20 | 25.77722 | -100.11361 | 1278 ft | 2 kts | 96° |
| 2026-04-20 22:20 | 25.77723 | -100.11368 | 1277 ft | 0 kts | 119° |
| 2026-04-20 22:23 | 25.77721 | -100.11366 | 1274 ft | 2 kts | 119° |
| 2026-04-20 22:23 | 25.77703 | -100.11330 | 1275 ft | 7 kts | 120° |
| 2026-04-20 22:24 | 25.77684 | -100.11273 | 1273 ft | 9 kts | 78° |
| 2026-04-20 22:24 | 25.77729 | -100.11222 | 1274 ft | 10 kts | 45° |
| 2026-04-20 22:24 | 25.77786 | -100.11172 | 1274 ft | 11 kts | 32° |
| 2026-04-20 22:24 | 25.77856 | -100.11129 | 1274 ft | 11 kts | 12° |
| 2026-04-20 22:25 | 25.77907 | -100.11194 | 1275 ft | 15 kts | 298° |
| 2026-04-20 22:25 | 25.77967 | -100.11306 | 1277 ft | 17 kts | 301° |
| 2026-04-20 22:25 | 25.78030 | -100.11421 | 1278 ft | 17 kts | 302° |
| 2026-04-20 22:25 | 25.78095 | -100.11534 | 1280 ft | 17 kts | 302° |
| 2026-04-20 22:26 | 25.78157 | -100.11650 | 1282 ft | 17 kts | 302° |
| 2026-04-20 22:26 | 25.78218 | -100.11761 | 1284 ft | 17 kts | 301° |
| 2026-04-20 22:26 | 25.78284 | -100.11798 | 1285 ft | 11 kts | 22° |
| 2026-04-20 22:27 | 25.78411 | -100.11710 | 1288 ft | 8 kts | 51° |
| 2026-04-20 22:27 | 25.78380 | -100.11643 | 1287 ft | 17 kts | 123° |
| 2026-04-20 22:27 | 25.78193 | -100.11307 | 1278 ft | 84 kts | 121° |
| 2026-04-20 22:27 | 25.77789 | -100.10573 | 1269 ft | 136 kts | 121° |
| 2026-04-20 22:28 | 25.77216 | -100.09546 | 1323 ft | 171 kts | 122° |
| 2026-04-20 22:28 | 25.76581 | -100.08435 | 1957 ft | 169 kts | 121° |
| 2026-04-20 22:28 | 25.75975 | -100.07317 | 2611 ft | 171 kts | 120° |
| 2026-04-20 22:28 | 25.75321 | -100.06120 | 2821 ft | 192 kts | 121° |
| 2026-04-20 22:29 | 25.74583 | -100.04774 | 3047 ft | 216 kts | 121° |
| 2026-04-20 22:29 | 25.73761 | -100.03270 | 3367 ft | 240 kts | 121° |
| 2026-04-20 22:29 | 25.72856 | -100.01622 | 3834 ft | 257 kts | 121° |
| 2026-04-20 22:29 | 25.71916 | -99.99916 | 4680 ft | 261 kts | 122° |
| 2026-04-20 22:30 | 25.70724 | -99.98413 | 5507 ft | 263 kts | 148° |
| 2026-04-20 22:30 | 25.68975 | -99.97864 | 6266 ft | 268 kts | 182° |
| 2026-04-20 22:30 | 25.67208 | -99.98524 | 6975 ft | 276 kts | 215° |
| 2026-04-20 22:30 | 25.66023 | -100.00211 | 7661 ft | 285 kts | 248° |
| 2026-04-20 22:31 | 25.65797 | -100.02402 | 8355 ft | 292 kts | 274° |
| 2026-04-20 22:31 | 25.66148 | -100.04636 | 8838 ft | 296 kts | 281° |
| 2026-04-20 22:31 | 25.66580 | -100.06862 | 8961 ft | 295 kts | 280° |
| 2026-04-20 22:31 | 25.67013 | -100.09084 | 8982 ft | 295 kts | 280° |
| 2026-04-20 22:32 | 25.67444 | -100.11305 | 8984 ft | 294 kts | 279° |
| 2026-04-20 22:32 | 25.67698 | -100.13544 | 8980 ft | 293 kts | 272° |
| 2026-04-20 22:32 | 25.67848 | -100.15794 | 8982 ft | 293 kts | 276° |
| 2026-04-20 22:32 | 25.68361 | -100.17999 | 9191 ft | 300 kts | 291° |
| 2026-04-20 22:33 | 25.69197 | -100.20114 | 9955 ft | 300 kts | 292° |
| 2026-04-20 22:33 | 25.70075 | -100.22269 | 10258 ft | 317 kts | 293° |
| 2026-04-20 22:33 | 25.71027 | -100.24563 | 10383 ft | 338 kts | 293° |
| 2026-04-20 22:33 | 25.72048 | -100.26994 | 10520 ft | 356 kts | 293° |
| 2026-04-20 22:34 | 25.73112 | -100.29506 | 10955 ft | 363 kts | 294° |
| 2026-04-20 22:34 | 25.74192 | -100.32043 | 11506 ft | 365 kts | 294° |
| 2026-04-20 22:34 | 25.75276 | -100.34592 | 12103 ft | 367 kts | 294° |
| 2026-04-20 22:34 | 25.76364 | -100.37160 | 12709 ft | 368 kts | 294° |
| 2026-04-20 22:35 | 25.77450 | -100.39735 | 13286 ft | 370 kts | 293° |
| 2026-04-20 22:35 | 25.78542 | -100.42327 | 13864 ft | 372 kts | 294° |
| 2026-04-20 22:35 | 25.79805 | -100.44838 | 14373 ft | 375 kts | 303° |
| 2026-04-20 22:35 | 25.81405 | -100.47140 | 14879 ft | 378 kts | 307° |
| 2026-04-20 22:36 | 25.83041 | -100.49432 | 15395 ft | 379 kts | 306° |
| 2026-04-20 22:36 | 25.84680 | -100.51730 | 15949 ft | 381 kts | 306° |
| 2026-04-20 22:36 | 25.86326 | -100.54038 | 16495 ft | 382 kts | 306° |
| 2026-04-20 22:36 | 25.87976 | -100.56353 | 17041 ft | 383 kts | 306° |
| 2026-04-20 22:37 | 25.89634 | -100.58684 | 17564 ft | 385 kts | 306° |
| 2026-04-20 22:37 | 25.91297 | -100.61027 | 18116 ft | 387 kts | 306° |
| 2026-04-20 22:37 | 25.92966 | -100.63379 | 18638 ft | 389 kts | 306° |
| 2026-04-20 22:37 | 25.94644 | -100.65743 | 19123 ft | 391 kts | 305° |
| 2026-04-20 22:38 | 25.96331 | -100.68122 | 19614 ft | 393 kts | 305° |
| 2026-04-20 22:38 | 25.98002 | -100.70478 | 19988 ft | 395 kts | 305° |
| 2026-04-20 22:38 | 25.99703 | -100.72879 | 20474 ft | 396 kts | 304° |
| 2026-04-20 22:38 | 26.01410 | -100.75293 | 20929 ft | 398 kts | 304° |
| 2026-04-20 22:39 | 26.03124 | -100.77714 | 21388 ft | 400 kts | 304° |
| 2026-04-20 22:39 | 26.04848 | -100.80152 | 21834 ft | 401 kts | 304° |
| 2026-04-20 22:39 | 26.06573 | -100.82594 | 22267 ft | 403 kts | 304° |
| 2026-04-20 22:39 | 26.08309 | -100.85055 | 22686 ft | 405 kts | 304° |
| 2026-04-20 22:40 | 26.10051 | -100.87524 | 23090 ft | 407 kts | 304° |
| 2026-04-20 22:40 | 26.11801 | -100.90002 | 23484 ft | 408 kts | 304° |
| 2026-04-20 22:40 | 26.13560 | -100.92489 | 23834 ft | 410 kts | 303° |
| 2026-04-20 22:40 | 26.15325 | -100.94987 | 24153 ft | 411 kts | 303° |
| 2026-04-20 22:41 | 26.17095 | -100.97500 | 24454 ft | 413 kts | 303° |
| 2026-04-20 22:41 | 26.18869 | -101.00024 | 24772 ft | 415 kts | 303° |
| 2026-04-20 22:41 | 26.20649 | -101.02560 | 25076 ft | 417 kts | 303° |
| 2026-04-20 22:41 | 26.22437 | -101.05105 | 25382 ft | 418 kts | 303° |
| 2026-04-20 22:42 | 26.24067 | -101.07769 | 25675 ft | 414 kts | 294° |
| 2026-04-20 22:42 | 26.25419 | -101.10600 | 25978 ft | 415 kts | 293° |
| 2026-04-20 22:42 | 26.26768 | -101.13448 | 26281 ft | 417 kts | 293° |
| 2026-04-20 22:42 | 26.28123 | -101.16310 | 26585 ft | 418 kts | 293° |
| 2026-04-20 22:43 | 26.29481 | -101.19179 | 26951 ft | 417 kts | 293° |
| 2026-04-20 22:43 | 26.30832 | -101.22033 | 27397 ft | 415 kts | 293° |
| 2026-04-20 22:43 | 26.32177 | -101.24876 | 27830 ft | 414 kts | 292° |
| 2026-04-20 22:43 | 26.33513 | -101.27705 | 28237 ft | 411 kts | 292° |
| 2026-04-20 22:44 | 26.34840 | -101.30518 | 28584 ft | 410 kts | 291° |
| 2026-04-20 22:44 | 26.36148 | -101.33339 | 28989 ft | 409 kts | 292° |
| 2026-04-20 22:44 | 26.37469 | -101.36141 | 29440 ft | 408 kts | 292° |
| 2026-04-20 22:44 | 26.38792 | -101.38931 | 29885 ft | 406 kts | 292° |
| 2026-04-20 22:45 | 26.40113 | -101.41710 | 30330 ft | 405 kts | 291° |
| 2026-04-20 22:45 | 26.41428 | -101.44481 | 30696 ft | 403 kts | 291° |
| 2026-04-20 22:45 | 26.42736 | -101.47241 | 31021 ft | 402 kts | 291° |
| 2026-04-20 22:45 | 26.44042 | -101.50000 | 31313 ft | 402 kts | 291° |
| 2026-04-20 22:46 | 26.45342 | -101.52757 | 31644 ft | 401 kts | 291° |
| 2026-04-20 22:46 | 26.46636 | -101.55512 | 32031 ft | 400 kts | 291° |
| 2026-04-20 22:46 | 26.47925 | -101.58259 | 32389 ft | 399 kts | 290° |
| 2026-04-20 22:46 | 26.49213 | -101.61004 | 32745 ft | 399 kts | 290° |
| 2026-04-20 22:47 | 26.50501 | -101.63745 | 33106 ft | 398 kts | 290° |
| 2026-04-20 22:47 | 26.51784 | -101.66475 | 33463 ft | 397 kts | 290° |
| 2026-04-20 22:47 | 26.53064 | -101.69206 | 33818 ft | 396 kts | 290° |
| 2026-04-20 22:47 | 26.54339 | -101.71933 | 34065 ft | 396 kts | 290° |
| 2026-04-20 22:48 | 26.56915 | -101.77476 | 34103 ft | 409 kts | 290° |
| 2026-04-20 22:48 | 26.59563 | -101.83165 | 34099 ft | 415 kts | 290° |
| 2026-04-20 22:49 | 26.62245 | -101.88886 | 34094 ft | 416 kts | 290° |
| 2026-04-20 22:49 | 26.64922 | -101.94609 | 34092 ft | 416 kts | 290° |
| 2026-04-20 22:50 | 26.67565 | -102.00301 | 34087 ft | 415 kts | 290° |
| 2026-04-20 22:50 | 26.70236 | -102.06082 | 34089 ft | 416 kts | 290° |
| 2026-04-20 22:51 | 26.72866 | -102.11787 | 34083 ft | 416 kts | 290° |
| 2026-04-20 22:51 | 26.75517 | -102.17538 | 34084 ft | 416 kts | 290° |
| 2026-04-20 22:52 | 26.78173 | -102.23288 | 34083 ft | 416 kts | 290° |
| 2026-04-20 22:52 | 26.80823 | -102.29040 | 34081 ft | 416 kts | 290° |
| 2026-04-20 22:53 | 26.83489 | -102.34834 | 34070 ft | 415 kts | 290° |
| 2026-04-20 22:53 | 26.86110 | -102.40553 | 34068 ft | 416 kts | 290° |
| 2026-04-20 22:54 | 26.88745 | -102.46314 | 34066 ft | 415 kts | 290° |
| 2026-04-20 22:54 | 26.91382 | -102.52072 | 34053 ft | 415 kts | 290° |
| 2026-04-20 22:55 | 26.94010 | -102.57829 | 34051 ft | 415 kts | 290° |
| 2026-04-20 22:55 | 26.96647 | -102.63591 | 34041 ft | 415 kts | 290° |
| 2026-04-20 22:56 | 26.99288 | -102.69351 | 34034 ft | 415 kts | 290° |
| 2026-04-20 22:56 | 27.01912 | -102.75112 | 34024 ft | 414 kts | 289° |
| 2026-04-20 22:57 | 27.04531 | -102.80872 | 34014 ft | 414 kts | 289° |
| 2026-04-20 22:57 | 27.07145 | -102.86634 | 34007 ft | 414 kts | 289° |
| 2026-04-20 22:58 | 27.09759 | -102.92396 | 33993 ft | 414 kts | 289° |
| 2026-04-20 22:58 | 27.12368 | -102.98156 | 33983 ft | 414 kts | 289° |
| 2026-04-20 22:59 | 27.14530 | -103.02945 | 33974 ft | 414 kts | 289° |
| 2026-04-20 22:59 | 27.17123 | -103.08707 | 33969 ft | 414 kts | 289° |
| 2026-04-20 23:00 | 27.19728 | -103.14471 | 33960 ft | 414 kts | 289° |
| 2026-04-20 23:00 | 27.22327 | -103.20236 | 33960 ft | 414 kts | 289° |
| 2026-04-20 23:01 | 27.24919 | -103.26004 | 33968 ft | 414 kts | 289° |
| 2026-04-20 23:01 | 27.27517 | -103.31771 | 33962 ft | 413 kts | 289° |
| 2026-04-20 23:02 | 27.30104 | -103.37526 | 33967 ft | 413 kts | 289° |
| 2026-04-20 23:02 | 27.32686 | -103.43303 | 33960 ft | 413 kts | 289° |
| 2026-04-20 23:03 | 27.35271 | -103.49073 | 33959 ft | 413 kts | 289° |
| 2026-04-20 23:03 | 27.37857 | -103.54852 | 33959 ft | 414 kts | 289° |
| 2026-04-20 23:04 | 27.40416 | -103.60605 | 33957 ft | 414 kts | 289° |
| 2026-04-20 23:04 | 27.42999 | -103.66401 | 33962 ft | 415 kts | 289° |
| 2026-04-20 23:05 | 27.45586 | -103.72204 | 33960 ft | 415 kts | 289° |
| 2026-04-20 23:05 | 27.48164 | -103.78011 | 33963 ft | 415 kts | 289° |
| 2026-04-20 23:06 | 27.50743 | -103.83823 | 33970 ft | 415 kts | 288° |
| 2026-04-20 23:06 | 27.53321 | -103.89633 | 33971 ft | 415 kts | 289° |
| 2026-04-20 23:07 | 27.55892 | -103.95450 | 33971 ft | 414 kts | 288° |
| 2026-04-20 23:07 | 27.58460 | -104.01257 | 33966 ft | 414 kts | 288° |
| 2026-04-20 23:08 | 27.61024 | -104.07061 | 33971 ft | 413 kts | 288° |
| 2026-04-20 23:08 | 27.63581 | -104.12863 | 33968 ft | 413 kts | 288° |
| 2026-04-20 23:09 | 27.66140 | -104.18656 | 33974 ft | 413 kts | 289° |
| 2026-04-20 23:09 | 27.68689 | -104.24452 | 33965 ft | 412 kts | 288° |
| 2026-04-20 23:10 | 27.71224 | -104.30258 | 33954 ft | 412 kts | 288° |
| 2026-04-20 23:10 | 27.73812 | -104.36040 | 33949 ft | 413 kts | 289° |
| 2026-04-20 23:11 | 27.76456 | -104.41807 | 33945 ft | 414 kts | 289° |
| 2026-04-20 23:11 | 27.79095 | -104.47580 | 33939 ft | 414 kts | 289° |
| 2026-04-20 23:12 | 27.81722 | -104.53357 | 33938 ft | 414 kts | 289° |
| 2026-04-20 23:12 | 27.84339 | -104.59140 | 33935 ft | 413 kts | 289° |
| 2026-04-20 23:13 | 27.86954 | -104.64934 | 33923 ft | 414 kts | 289° |
| 2026-04-20 23:13 | 27.89568 | -104.70728 | 33910 ft | 414 kts | 289° |
| 2026-04-20 23:14 | 27.92187 | -104.76533 | 33904 ft | 415 kts | 289° |
| 2026-04-20 23:14 | 27.94802 | -104.82353 | 33895 ft | 415 kts | 289° |
| 2026-04-20 23:15 | 27.97421 | -104.88179 | 33897 ft | 416 kts | 289° |
| 2026-04-20 23:15 | 28.00023 | -104.93977 | 33893 ft | 416 kts | 289° |
| 2026-04-20 23:16 | 28.02613 | -104.99832 | 33898 ft | 416 kts | 289° |
| 2026-04-20 23:16 | 28.05194 | -105.05695 | 33897 ft | 416 kts | 289° |
| 2026-04-20 23:17 | 28.07777 | -105.11556 | 33900 ft | 416 kts | 289° |
| 2026-04-20 23:17 | 28.10357 | -105.17413 | 33903 ft | 416 kts | 289° |
| 2026-04-20 23:18 | 28.12927 | -105.23276 | 33896 ft | 415 kts | 290° |
| 2026-04-20 23:18 | 28.15499 | -105.29135 | 33899 ft | 415 kts | 290° |
| 2026-04-20 23:19 | 28.18068 | -105.34996 | 33891 ft | 415 kts | 290° |
| 2026-04-20 23:19 | 28.20630 | -105.40854 | 33893 ft | 415 kts | 290° |
| 2026-04-20 23:20 | 28.23193 | -105.46713 | 33890 ft | 415 kts | 290° |
| 2026-04-20 23:20 | 28.25754 | -105.52575 | 33889 ft | 414 kts | 290° |
| 2026-04-20 23:21 | 28.28310 | -105.58437 | 33893 ft | 414 kts | 290° |
| 2026-04-20 23:21 | 28.30862 | -105.64304 | 33896 ft | 414 kts | 290° |
| 2026-04-20 23:22 | 28.33407 | -105.70166 | 33892 ft | 414 kts | 290° |
| 2026-04-20 23:22 | 28.35948 | -105.76036 | 33899 ft | 414 kts | 290° |
| 2026-04-20 23:23 | 28.38485 | -105.81899 | 33915 ft | 414 kts | 290° |
| 2026-04-20 23:23 | 28.41021 | -105.87760 | 33954 ft | 413 kts | 290° |
| 2026-04-20 23:24 | 28.43559 | -105.93621 | 33982 ft | 413 kts | 290° |
| 2026-04-20 23:24 | 28.46094 | -105.99488 | 34002 ft | 413 kts | 290° |
| 2026-04-20 23:25 | 28.48616 | -106.05352 | 34016 ft | 413 kts | 290° |
| 2026-04-20 23:25 | 28.51138 | -106.11220 | 34019 ft | 413 kts | 290° |
| 2026-04-20 23:26 | 28.53639 | -106.17045 | 34014 ft | 413 kts | 290° |
| 2026-04-20 23:26 | 28.56156 | -106.22915 | 33995 ft | 413 kts | 290° |
| 2026-04-20 23:27 | 28.58670 | -106.28782 | 33971 ft | 412 kts | 290° |
| 2026-04-20 23:27 | 28.61182 | -106.34651 | 33947 ft | 412 kts | 290° |
| 2026-04-20 23:28 | 28.63679 | -106.40521 | 33940 ft | 412 kts | 290° |
| 2026-04-20 23:28 | 28.66176 | -106.46391 | 33945 ft | 412 kts | 290° |
| 2026-04-20 23:29 | 28.68674 | -106.52265 | 33948 ft | 412 kts | 290° |
| 2026-04-20 23:29 | 28.71172 | -106.58146 | 33950 ft | 412 kts | 291° |
| 2026-04-20 23:30 | 28.73673 | -106.64032 | 33961 ft | 413 kts | 291° |
| 2026-04-20 23:30 | 28.76165 | -106.69921 | 33971 ft | 413 kts | 291° |
| 2026-04-20 23:31 | 28.78652 | -106.75807 | 33972 ft | 412 kts | 291° |
| 2026-04-20 23:31 | 28.81157 | -106.81685 | 33977 ft | 412 kts | 291° |
| 2026-04-20 23:32 | 28.83681 | -106.87547 | 33977 ft | 412 kts | 291° |
| 2026-04-20 23:32 | 28.86182 | -106.93366 | 33978 ft | 411 kts | 291° |
| 2026-04-20 23:33 | 28.88693 | -106.99229 | 33981 ft | 411 kts | 291° |
| 2026-04-20 23:33 | 28.91193 | -107.05094 | 33980 ft | 411 kts | 291° |
| 2026-04-20 23:34 | 28.93687 | -107.10966 | 33983 ft | 411 kts | 291° |
| 2026-04-20 23:34 | 28.96177 | -107.16833 | 33982 ft | 411 kts | 291° |
| 2026-04-20 23:35 | 28.99924 | -107.25643 | 33986 ft | 411 kts | 291° |
| 2026-04-20 23:36 | 29.02414 | -107.31524 | 33992 ft | 412 kts | 291° |
| 2026-04-20 23:36 | 29.04908 | -107.37413 | 34000 ft | 411 kts | 291° |
| 2026-04-20 23:37 | 29.07400 | -107.43296 | 34003 ft | 411 kts | 291° |
| 2026-04-20 23:37 | 29.09887 | -107.49183 | 34009 ft | 411 kts | 291° |
| 2026-04-20 23:38 | 29.12362 | -107.55069 | 34009 ft | 411 kts | 291° |
| 2026-04-20 23:38 | 29.14819 | -107.60919 | 34015 ft | 410 kts | 291° |
| 2026-04-20 23:39 | 29.17295 | -107.66800 | 34020 ft | 410 kts | 291° |
| 2026-04-20 23:39 | 29.19759 | -107.72687 | 34026 ft | 410 kts | 291° |
| 2026-04-20 23:40 | 29.22218 | -107.78570 | 34029 ft | 410 kts | 291° |
| 2026-04-20 23:40 | 29.24679 | -107.84452 | 34033 ft | 409 kts | 291° |
| 2026-04-20 23:41 | 29.27125 | -107.90324 | 34037 ft | 409 kts | 291° |
| 2026-04-20 23:41 | 29.29573 | -107.96202 | 34043 ft | 409 kts | 291° |
| 2026-04-20 23:42 | 29.32025 | -108.02075 | 34046 ft | 409 kts | 291° |
| 2026-04-20 23:42 | 29.34468 | -108.07948 | 34047 ft | 409 kts | 291° |
| 2026-04-20 23:43 | 29.36912 | -108.13831 | 34050 ft | 408 kts | 291° |
| 2026-04-20 23:43 | 29.39350 | -108.19712 | 34048 ft | 408 kts | 291° |
| 2026-04-20 23:44 | 29.41781 | -108.25600 | 34052 ft | 408 kts | 291° |
| 2026-04-20 23:44 | 29.44216 | -108.31487 | 34045 ft | 409 kts | 291° |
| 2026-04-20 23:45 | 29.46653 | -108.37382 | 34048 ft | 409 kts | 291° |
| 2026-04-20 23:45 | 29.49081 | -108.43281 | 34038 ft | 409 kts | 291° |
| 2026-04-20 23:46 | 29.51480 | -108.49158 | 34050 ft | 405 kts | 291° |
| 2026-04-20 23:46 | 29.53868 | -108.54982 | 34038 ft | 401 kts | 292° |
| 2026-04-20 23:47 | 29.56240 | -108.60726 | 34035 ft | 399 kts | 292° |
| 2026-04-20 23:47 | 29.58602 | -108.66462 | 33997 ft | 395 kts | 292° |
| 2026-04-20 23:48 | 29.60940 | -108.72196 | 33982 ft | 396 kts | 292° |
| 2026-04-20 23:48 | 29.63280 | -108.77939 | 33980 ft | 397 kts | 292° |
| 2026-04-20 23:49 | 29.65238 | -108.82769 | 33977 ft | 398 kts | 292° |
| 2026-04-20 23:49 | 29.67579 | -108.88535 | 33971 ft | 398 kts | 292° |
| 2026-04-20 23:50 | 29.69909 | -108.94269 | 33971 ft | 399 kts | 292° |
| 2026-04-20 23:50 | 29.72257 | -109.00057 | 33967 ft | 399 kts | 292° |
| 2026-04-20 23:51 | 29.74600 | -109.05849 | 33965 ft | 400 kts | 292° |
| 2026-04-20 23:51 | 29.76946 | -109.11650 | 33962 ft | 400 kts | 292° |
| 2026-04-20 23:52 | 29.79294 | -109.17453 | 33960 ft | 400 kts | 292° |
| 2026-04-20 23:52 | 29.81637 | -109.23256 | 33953 ft | 400 kts | 292° |
| 2026-04-20 23:53 | 29.83976 | -109.29073 | 33948 ft | 400 kts | 292° |
| 2026-04-20 23:53 | 29.86308 | -109.34885 | 33951 ft | 400 kts | 292° |
| 2026-04-20 23:54 | 29.88642 | -109.40707 | 33944 ft | 400 kts | 292° |
| 2026-04-20 23:54 | 29.90982 | -109.46527 | 33938 ft | 400 kts | 292° |
| 2026-04-20 23:55 | 29.93299 | -109.52321 | 33941 ft | 401 kts | 291° |
| 2026-04-20 23:55 | 29.95625 | -109.58168 | 33943 ft | 402 kts | 292° |
| 2026-04-20 23:56 | 29.97963 | -109.64022 | 33944 ft | 402 kts | 292° |
| 2026-04-20 23:56 | 30.00297 | -109.69872 | 33947 ft | 402 kts | 292° |
| 2026-04-20 23:57 | 30.02626 | -109.75732 | 33947 ft | 402 kts | 292° |
| 2026-04-20 23:57 | 30.04955 | -109.81600 | 33945 ft | 402 kts | 291° |
| 2026-04-20 23:58 | 30.07282 | -109.87466 | 33946 ft | 402 kts | 291° |
| 2026-04-20 23:58 | 30.09604 | -109.93348 | 33937 ft | 403 kts | 291° |
| 2026-04-20 23:59 | 30.11920 | -109.99240 | 33944 ft | 403 kts | 291° |
| 2026-04-20 23:59 | 30.14252 | -110.05138 | 33940 ft | 404 kts | 291° |
| 2026-04-21 00:00 | 30.16585 | -110.11053 | 33941 ft | 405 kts | 291° |
| 2026-04-21 00:00 | 30.18915 | -110.16980 | 33942 ft | 405 kts | 291° |
| 2026-04-21 00:01 | 30.21248 | -110.22917 | 33943 ft | 406 kts | 291° |
| 2026-04-21 00:01 | 30.23566 | -110.28817 | 33955 ft | 406 kts | 291° |
| 2026-04-21 00:02 | 30.25892 | -110.34770 | 33942 ft | 406 kts | 291° |
| 2026-04-21 00:02 | 30.28215 | -110.40739 | 33944 ft | 407 kts | 291° |
| 2026-04-21 00:03 | 30.30548 | -110.46710 | 33943 ft | 408 kts | 291° |
| 2026-04-21 00:03 | 30.32884 | -110.52692 | 33937 ft | 408 kts | 291° |
| 2026-04-21 00:04 | 30.35215 | -110.58681 | 33941 ft | 408 kts | 291° |
| 2026-04-21 00:04 | 30.37541 | -110.64684 | 33934 ft | 408 kts | 291° |
| 2026-04-21 00:05 | 30.39864 | -110.70694 | 33937 ft | 409 kts | 291° |
| 2026-04-21 00:05 | 30.42191 | -110.76707 | 33928 ft | 409 kts | 291° |
| 2026-04-21 00:06 | 30.44518 | -110.82727 | 33932 ft | 410 kts | 291° |
| 2026-04-21 00:06 | 30.46845 | -110.88758 | 33930 ft | 410 kts | 291° |
| 2026-04-21 00:07 | 30.49168 | -110.94801 | 33917 ft | 411 kts | 291° |
| 2026-04-21 00:07 | 30.51489 | -111.00854 | 33914 ft | 411 kts | 291° |
| 2026-04-21 00:08 | 30.53821 | -111.06917 | 33909 ft | 412 kts | 291° |
| 2026-04-21 00:08 | 30.56147 | -111.12987 | 33904 ft | 412 kts | 291° |
| 2026-04-21 00:09 | 30.58472 | -111.19071 | 33912 ft | 413 kts | 291° |
| 2026-04-21 00:09 | 30.60793 | -111.25165 | 33909 ft | 413 kts | 291° |
| 2026-04-21 00:10 | 30.63115 | -111.31265 | 33907 ft | 413 kts | 291° |
| 2026-04-21 00:10 | 30.65425 | -111.37335 | 33914 ft | 414 kts | 291° |
| 2026-04-21 00:11 | 30.67753 | -111.43455 | 33908 ft | 414 kts | 291° |
| 2026-04-21 00:11 | 30.70080 | -111.49583 | 33912 ft | 415 kts | 291° |
| 2026-04-21 00:12 | 30.72399 | -111.55723 | 33916 ft | 415 kts | 290° |
| 2026-04-21 00:12 | 30.74721 | -111.61874 | 33909 ft | 416 kts | 290° |
| 2026-04-21 00:13 | 30.77049 | -111.68032 | 33918 ft | 416 kts | 290° |
| 2026-04-21 00:13 | 30.79362 | -111.74201 | 33912 ft | 416 kts | 290° |
| 2026-04-21 00:14 | 30.81682 | -111.80378 | 33920 ft | 417 kts | 290° |
| 2026-04-21 00:14 | 30.84002 | -111.86567 | 33922 ft | 417 kts | 290° |
| 2026-04-21 00:15 | 30.86329 | -111.92760 | 33923 ft | 418 kts | 290° |
| 2026-04-21 00:15 | 30.88651 | -111.98968 | 33931 ft | 418 kts | 290° |
| 2026-04-21 00:16 | 30.90967 | -112.05182 | 33931 ft | 419 kts | 290° |
| 2026-04-21 00:16 | 30.93287 | -112.11409 | 33928 ft | 419 kts | 290° |
| 2026-04-21 00:17 | 30.95610 | -112.17646 | 33932 ft | 420 kts | 290° |
| 2026-04-21 00:17 | 30.97924 | -112.23889 | 33910 ft | 420 kts | 290° |
| 2026-04-21 00:18 | 31.00249 | -112.30165 | 33954 ft | 422 kts | 290° |
| 2026-04-21 00:18 | 31.02574 | -112.36446 | 33954 ft | 422 kts | 290° |
| 2026-04-21 00:19 | 31.04890 | -112.42726 | 33962 ft | 422 kts | 290° |
| 2026-04-21 00:19 | 31.07209 | -112.49011 | 33950 ft | 422 kts | 290° |
| 2026-04-21 00:20 | 31.09525 | -112.55306 | 33948 ft | 422 kts | 290° |
| 2026-04-21 00:20 | 31.11831 | -112.61605 | 33950 ft | 423 kts | 290° |
| 2026-04-21 00:21 | 31.14149 | -112.67914 | 33947 ft | 423 kts | 290° |
| 2026-04-21 00:21 | 31.16460 | -112.74229 | 33943 ft | 423 kts | 289° |
| 2026-04-21 00:22 | 31.18767 | -112.80558 | 33943 ft | 424 kts | 290° |
| 2026-04-21 00:22 | 31.21066 | -112.86849 | 33945 ft | 424 kts | 289° |
| 2026-04-21 00:23 | 31.23379 | -112.93195 | 33945 ft | 425 kts | 289° |
| 2026-04-21 00:23 | 31.25686 | -112.99554 | 33946 ft | 425 kts | 289° |
| 2026-04-21 00:24 | 31.27987 | -113.05922 | 33954 ft | 426 kts | 289° |
| 2026-04-21 00:24 | 31.30297 | -113.12303 | 33961 ft | 426 kts | 289° |
| 2026-04-21 00:25 | 31.32603 | -113.18691 | 33966 ft | 427 kts | 289° |
| 2026-04-21 00:25 | 31.34908 | -113.25091 | 33964 ft | 427 kts | 289° |
| 2026-04-21 00:26 | 31.37434 | -113.31398 | 33964 ft | 432 kts | 298° |
| 2026-04-21 00:26 | 31.40745 | -113.37277 | 33965 ft | 433 kts | 299° |
| 2026-04-21 00:27 | 31.44064 | -113.43168 | 33958 ft | 434 kts | 299° |
| 2026-04-21 00:27 | 31.47375 | -113.49076 | 33951 ft | 434 kts | 299° |
| 2026-04-21 00:28 | 31.50687 | -113.54995 | 33945 ft | 434 kts | 299° |
| 2026-04-21 00:28 | 31.53999 | -113.60919 | 33934 ft | 435 kts | 299° |
| 2026-04-21 00:29 | 31.57315 | -113.66854 | 33930 ft | 435 kts | 299° |
| 2026-04-21 00:29 | 31.60631 | -113.72794 | 33931 ft | 435 kts | 299° |
| 2026-04-21 00:30 | 31.63945 | -113.78743 | 33934 ft | 436 kts | 299° |
| 2026-04-21 00:30 | 31.67255 | -113.84704 | 33930 ft | 436 kts | 299° |
| 2026-04-21 00:31 | 31.70564 | -113.90675 | 33926 ft | 436 kts | 299° |
| 2026-04-21 00:31 | 31.73878 | -113.96642 | 33926 ft | 436 kts | 299° |
| 2026-04-21 00:32 | 31.77190 | -114.02624 | 33930 ft | 437 kts | 299° |
| 2026-04-21 00:32 | 31.80498 | -114.08610 | 33928 ft | 437 kts | 299° |
| 2026-04-21 00:33 | 31.83806 | -114.14608 | 33927 ft | 437 kts | 299° |
| 2026-04-21 00:33 | 31.87113 | -114.20609 | 33932 ft | 437 kts | 299° |
| 2026-04-21 00:34 | 31.90419 | -114.26617 | 33935 ft | 437 kts | 299° |
| 2026-04-21 00:34 | 31.93719 | -114.32637 | 33930 ft | 438 kts | 299° |
| 2026-04-21 00:35 | 31.97021 | -114.38666 | 33928 ft | 438 kts | 299° |
| 2026-04-21 00:35 | 32.00299 | -114.44654 | 33925 ft | 438 kts | 299° |
| 2026-04-21 00:36 | 32.03603 | -114.50691 | 33923 ft | 438 kts | 299° |
| 2026-04-21 00:36 | 32.06904 | -114.56733 | 33927 ft | 439 kts | 299° |
| 2026-04-21 00:37 | 32.10201 | -114.62788 | 33922 ft | 439 kts | 299° |
| 2026-04-21 00:37 | 32.12961 | -114.67869 | 33920 ft | 439 kts | 299° |
| 2026-04-21 00:38 | 32.16252 | -114.73937 | 33915 ft | 439 kts | 299° |
| 2026-04-21 00:38 | 32.19523 | -114.79972 | 33917 ft | 440 kts | 299° |
| 2026-04-21 00:39 | 32.22819 | -114.86058 | 33911 ft | 440 kts | 299° |
| 2026-04-21 00:39 | 32.26114 | -114.92150 | 33911 ft | 440 kts | 299° |
| 2026-04-21 00:40 | 32.29410 | -114.98253 | 33915 ft | 441 kts | 299° |
| 2026-04-21 00:40 | 32.32703 | -115.04359 | 33901 ft | 441 kts | 299° |
| 2026-04-21 00:41 | 32.35996 | -115.10481 | 33910 ft | 441 kts | 299° |
| 2026-04-21 00:41 | 32.39284 | -115.16606 | 33910 ft | 441 kts | 299° |
| 2026-04-21 00:42 | 32.42568 | -115.22747 | 33915 ft | 441 kts | 298° |
| 2026-04-21 00:42 | 32.45857 | -115.28886 | 33915 ft | 442 kts | 298° |
| 2026-04-21 00:43 | 32.49151 | -115.35038 | 33917 ft | 442 kts | 298° |
| 2026-04-21 00:43 | 32.52440 | -115.41189 | 33915 ft | 442 kts | 298° |
| 2026-04-21 00:44 | 32.55706 | -115.47309 | 33922 ft | 442 kts | 298° |
| 2026-04-21 00:44 | 32.58984 | -115.53482 | 33922 ft | 442 kts | 298° |
| 2026-04-21 00:45 | 32.63894 | -115.62753 | 33920 ft | 443 kts | 298° |
| 2026-04-21 00:45 | 32.67196 | -115.68978 | 33918 ft | 443 kts | 298° |
| 2026-04-21 00:46 | 32.70468 | -115.75165 | 33916 ft | 443 kts | 298° |
| 2026-04-21 00:46 | 32.73717 | -115.81325 | 33755 ft | 444 kts | 298° |
| 2026-04-21 00:47 | 32.75355 | -115.84433 | 33491 ft | 444 kts | 298° |
| 2026-04-21 00:47 | 32.76992 | -115.87545 | 33237 ft | 445 kts | 298° |
| 2026-04-21 00:47 | 32.78629 | -115.90667 | 32982 ft | 446 kts | 298° |
| 2026-04-21 00:47 | 32.80268 | -115.93802 | 32732 ft | 447 kts | 298° |
| 2026-04-21 00:48 | 32.81898 | -115.96947 | 32485 ft | 447 kts | 298° |
| 2026-04-21 00:48 | 32.83505 | -116.00117 | 32240 ft | 448 kts | 297° |
| 2026-04-21 00:48 | 32.85098 | -116.03311 | 31995 ft | 450 kts | 297° |
| 2026-04-21 00:48 | 32.86688 | -116.06522 | 31754 ft | 451 kts | 297° |
| 2026-04-21 00:49 | 32.88280 | -116.09740 | 31520 ft | 452 kts | 297° |
| 2026-04-21 00:49 | 32.89880 | -116.12961 | 31276 ft | 453 kts | 298° |
| 2026-04-21 00:49 | 32.91489 | -116.16189 | 31038 ft | 454 kts | 298° |
| 2026-04-21 00:49 | 32.93102 | -116.19418 | 30799 ft | 455 kts | 298° |
| 2026-04-21 00:50 | 32.94720 | -116.22657 | 30569 ft | 456 kts | 298° |
| 2026-04-21 00:50 | 32.96342 | -116.25907 | 30337 ft | 457 kts | 298° |
| 2026-04-21 00:50 | 32.97966 | -116.29166 | 30105 ft | 458 kts | 298° |
| 2026-04-21 00:50 | 32.99593 | -116.32431 | 29843 ft | 459 kts | 298° |
| 2026-04-21 00:51 | 33.01222 | -116.35704 | 29585 ft | 460 kts | 298° |
| 2026-04-21 00:51 | 33.02849 | -116.38982 | 29301 ft | 459 kts | 298° |
| 2026-04-21 00:51 | 33.04463 | -116.42259 | 29035 ft | 458 kts | 296° |
| 2026-04-21 00:51 | 33.05822 | -116.45671 | 28767 ft | 455 kts | 291° |
| 2026-04-21 00:52 | 33.07103 | -116.49110 | 28504 ft | 453 kts | 291° |
| 2026-04-21 00:52 | 33.08375 | -116.52520 | 27929 ft | 447 kts | 291° |
| 2026-04-21 00:52 | 33.09636 | -116.55890 | 27281 ft | 443 kts | 291° |
| 2026-04-21 00:52 | 33.10885 | -116.59228 | 26662 ft | 439 kts | 291° |
| 2026-04-21 00:53 | 33.12120 | -116.62541 | 26006 ft | 436 kts | 291° |
| 2026-04-21 00:53 | 33.13207 | -116.65897 | 25376 ft | 431 kts | 283° |
| 2026-04-21 00:53 | 33.13856 | -116.69325 | 24626 ft | 429 kts | 277° |
| 2026-04-21 00:53 | 33.14367 | -116.72870 | 24015 ft | 427 kts | 277° |
| 2026-04-21 00:54 | 33.14863 | -116.76302 | 23381 ft | 424 kts | 277° |
| 2026-04-21 00:54 | 33.15366 | -116.79746 | 22762 ft | 420 kts | 277° |
| 2026-04-21 00:54 | 33.15872 | -116.83161 | 22197 ft | 415 kts | 277° |
| 2026-04-21 00:54 | 33.16372 | -116.86540 | 21643 ft | 411 kts | 277° |
| 2026-04-21 00:55 | 33.16862 | -116.89887 | 21104 ft | 407 kts | 276° |
| 2026-04-21 00:55 | 33.17346 | -116.93201 | 20592 ft | 404 kts | 276° |
| 2026-04-21 00:55 | 33.17822 | -116.96490 | 20075 ft | 401 kts | 276° |
| 2026-04-21 00:55 | 33.18293 | -116.99764 | 19579 ft | 399 kts | 276° |
| 2026-04-21 00:56 | 33.18764 | -117.03020 | 19083 ft | 397 kts | 276° |
| 2026-04-21 00:56 | 33.19234 | -117.06265 | 18561 ft | 396 kts | 276° |
| 2026-04-21 00:56 | 33.19703 | -117.09504 | 17956 ft | 396 kts | 276° |
| 2026-04-21 00:56 | 33.20168 | -117.12733 | 17425 ft | 393 kts | 276° |
| 2026-04-21 00:57 | 33.20627 | -117.15936 | 16891 ft | 390 kts | 276° |
| 2026-04-21 00:57 | 33.21083 | -117.19116 | 16336 ft | 387 kts | 276° |
| 2026-04-21 00:57 | 33.21534 | -117.22273 | 15783 ft | 385 kts | 276° |
| 2026-04-21 00:57 | 33.21981 | -117.25409 | 15218 ft | 382 kts | 276° |
| 2026-04-21 00:58 | 33.22425 | -117.28525 | 14655 ft | 379 kts | 277° |
| 2026-04-21 00:58 | 33.22864 | -117.31615 | 14096 ft | 376 kts | 277° |
| 2026-04-21 00:58 | 33.23311 | -117.34667 | 13780 ft | 366 kts | 277° |
| 2026-04-21 00:58 | 33.23772 | -117.37628 | 13689 ft | 361 kts | 278° |
| 2026-04-21 00:59 | 33.24239 | -117.40565 | 13603 ft | 360 kts | 278° |
| 2026-04-21 00:59 | 33.24706 | -117.43492 | 13473 ft | 359 kts | 278° |
| 2026-04-21 00:59 | 33.25167 | -117.46421 | 13330 ft | 358 kts | 277° |
| 2026-04-21 00:59 | 33.25622 | -117.49343 | 13189 ft | 358 kts | 277° |
| 2026-04-21 01:00 | 33.26174 | -117.52240 | 13050 ft | 359 kts | 285° |
| 2026-04-21 01:00 | 33.27167 | -117.54989 | 12845 ft | 363 kts | 296° |
| 2026-04-21 01:00 | 33.28519 | -117.57532 | 12545 ft | 362 kts | 300° |
| 2026-04-21 01:00 | 33.29895 | -117.60055 | 12275 ft | 362 kts | 300° |
| 2026-04-21 01:01 | 33.31261 | -117.62573 | 12006 ft | 361 kts | 300° |
| 2026-04-21 01:01 | 33.32618 | -117.65087 | 11739 ft | 360 kts | 300° |
| 2026-04-21 01:01 | 33.33971 | -117.67598 | 11465 ft | 359 kts | 300° |
| 2026-04-21 01:01 | 33.35320 | -117.70106 | 11194 ft | 358 kts | 300° |
| 2026-04-21 01:02 | 33.36664 | -117.72614 | 10925 ft | 358 kts | 300° |
| 2026-04-21 01:02 | 33.37996 | -117.75101 | 10690 ft | 349 kts | 300° |
| 2026-04-21 01:02 | 33.39281 | -117.77495 | 10560 ft | 336 kts | 300° |
| 2026-04-21 01:02 | 33.40522 | -117.79802 | 10443 ft | 323 kts | 300° |
| 2026-04-21 01:03 | 33.41716 | -117.82025 | 10325 ft | 312 kts | 300° |
| 2026-04-21 01:03 | 33.42872 | -117.84184 | 10154 ft | 304 kts | 300° |
| 2026-04-21 01:03 | 33.44000 | -117.86294 | 10039 ft | 300 kts | 300° |
| 2026-04-21 01:03 | 33.45121 | -117.88400 | 9835 ft | 299 kts | 300° |
| 2026-04-21 01:04 | 33.46241 | -117.90501 | 9652 ft | 299 kts | 301° |
| 2026-04-21 01:04 | 33.47568 | -117.92412 | 9462 ft | 300 kts | 315° |
| 2026-04-21 01:04 | 33.49270 | -117.93859 | 9305 ft | 302 kts | 331° |
| 2026-04-21 01:04 | 33.51225 | -117.94802 | 9171 ft | 303 kts | 339° |
| 2026-04-21 01:05 | 33.53203 | -117.95651 | 9055 ft | 302 kts | 339° |
| 2026-04-21 01:05 | 33.55186 | -117.96507 | 8922 ft | 302 kts | 339° |
| 2026-04-21 01:05 | 33.57157 | -117.97361 | 8799 ft | 301 kts | 339° |
| 2026-04-21 01:05 | 33.59128 | -117.98216 | 8620 ft | 301 kts | 339° |
| 2026-04-21 01:06 | 33.61094 | -117.99072 | 8256 ft | 301 kts | 339° |
| 2026-04-21 01:06 | 33.63070 | -117.99922 | 7883 ft | 301 kts | 340° |
| 2026-04-21 01:06 | 33.65045 | -118.00688 | 7665 ft | 297 kts | 341° |
| 2026-04-21 01:06 | 33.67014 | -118.01401 | 7423 ft | 294 kts | 342° |
| 2026-04-21 01:07 | 33.68972 | -118.02092 | 7136 ft | 293 kts | 342° |
| 2026-04-21 01:07 | 33.70927 | -118.02781 | 6971 ft | 292 kts | 342° |
| 2026-04-21 01:07 | 33.72854 | -118.03432 | 6664 ft | 292 kts | 343° |
| 2026-04-21 01:07 | 33.74815 | -118.04109 | 6298 ft | 293 kts | 342° |
| 2026-04-21 01:08 | 33.76753 | -118.04852 | 5924 ft | 293 kts | 340° |
| 2026-04-21 01:08 | 33.78676 | -118.05666 | 5539 ft | 293 kts | 338° |
| 2026-04-21 01:08 | 33.80585 | -118.06532 | 5172 ft | 293 kts | 338° |
| 2026-04-21 01:08 | 33.82487 | -118.07429 | 4805 ft | 293 kts | 337° |
| 2026-04-21 01:09 | 33.84377 | -118.08339 | 4423 ft | 293 kts | 337° |
| 2026-04-21 01:09 | 33.86263 | -118.09251 | 4073 ft | 292 kts | 337° |
| 2026-04-21 01:09 | 33.88148 | -118.10160 | 3693 ft | 291 kts | 337° |
| 2026-04-21 01:09 | 33.89977 | -118.11190 | 3324 ft | 290 kts | 335° |
| 2026-04-21 01:10 | 33.91865 | -118.11751 | 3424 ft | 269 kts | 353° |
| 2026-04-21 01:10 | 33.93687 | -118.11945 | 3418 ft | 256 kts | 355° |
| 2026-04-21 01:10 | 33.95416 | -118.12133 | 3396 ft | 242 kts | 348° |
| 2026-04-21 01:10 | 33.96859 | -118.12962 | 3403 ft | 226 kts | 315° |
| 2026-04-21 01:11 | 33.97727 | -118.14502 | 3405 ft | 223 kts | 294° |
| 2026-04-21 01:11 | 33.98216 | -118.16264 | 3406 ft | 221 kts | 271° |
| 2026-04-21 01:11 | 33.97882 | -118.18034 | 3410 ft | 219 kts | 239° |
| 2026-04-21 01:11 | 33.97031 | -118.19553 | 3415 ft | 217 kts | 232° |
| 2026-04-21 01:12 | 33.96128 | -118.20957 | 3201 ft | 213 kts | 231° |
| 2026-04-21 01:12 | 33.95327 | -118.22493 | 2711 ft | 221 kts | 255° |
| 2026-04-21 01:12 | 33.95126 | -118.24308 | 2424 ft | 214 kts | 264° |
| 2026-04-21 01:12 | 33.94975 | -118.25986 | 2147 ft | 190 kts | 263° |
| 2026-04-21 01:13 | 33.94828 | -118.27478 | 1899 ft | 169 kts | 263° |
| 2026-04-21 01:13 | 33.94694 | -118.28821 | 1687 ft | 154 kts | 263° |
| 2026-04-21 01:13 | 33.94573 | -118.30026 | 1491 ft | 139 kts | 262° |
| 2026-04-21 01:13 | 33.94461 | -118.31156 | 1304 ft | 132 kts | 263° |
| 2026-04-21 01:14 | 33.94347 | -118.32251 | 1147 ft | 133 kts | 263° |
| 2026-04-21 01:14 | 33.94233 | -118.33350 | 950 ft | 131 kts | 263° |
| 2026-04-21 01:14 | 33.94120 | -118.34436 | 792 ft | 130 kts | 265° |
| 2026-04-21 01:14 | 33.94021 | -118.35518 | 587 ft | 130 kts | 263° |
| 2026-04-21 01:15 | 33.93904 | -118.36604 | 415 ft | 131 kts | 264° |
| 2026-04-21 01:15 | 33.93794 | -118.37687 | 254 ft | 129 kts | 264° |
| 2026-04-21 01:15 | 33.93687 | -118.38760 | 137 ft | 129 kts | 262° |
| 2026-04-21 01:15 | 33.93595 | -118.39668 | 126 ft | 78 kts | 264° |
| 2026-04-21 01:16 | 33.93562 | -118.40048 | 126 ft | 32 kts | 271° |
| 2026-04-21 01:16 | 33.93589 | -118.40262 | 125 ft | 21 kts | 292° |
| 2026-04-21 01:16 | 33.93620 | -118.40345 | 122 ft | 8 kts | 288° |
| 2026-04-21 01:16 | 33.93622 | -118.40465 | 124 ft | 17 kts | 262° |
| 2026-04-21 01:17 | 33.93608 | -118.40607 | 122 ft | 18 kts | 264° |
| 2026-04-21 01:17 | 33.93594 | -118.40766 | 123 ft | 20 kts | 268° |
| 2026-04-21 01:17 | 33.93642 | -118.40890 | 124 ft | 16 kts | 335° |
| 2026-04-21 01:17 | 33.93745 | -118.40907 | 124 ft | 6 kts | 355° |
| 2026-04-21 01:18 | 33.93760 | -118.40910 | 124 ft | 4 kts | 351° |
| 2026-04-21 01:18 | 33.93781 | -118.40937 | 124 ft | 6 kts | 290° |
| 2026-04-21 01:18 | 33.93777 | -118.40996 | 126 ft | 8 kts | 262° |
| 2026-04-21 01:18 | 33.93769 | -118.41070 | 126 ft | 10 kts | 263° |
| 2026-04-21 01:19 | 33.93760 | -118.41162 | 124 ft | 13 kts | 263° |
| 2026-04-21 01:19 | 33.93774 | -118.41243 | 123 ft | 11 kts | 321° |
| 2026-04-21 01:19 | 33.93857 | -118.41260 | 123 ft | 13 kts | 353° |
| 2026-04-21 01:19 | 33.93957 | -118.41276 | 123 ft | 16 kts | 353° |
| 2026-04-21 01:20 | 33.94076 | -118.41293 | 124 ft | 18 kts | 353° |
| 2026-04-21 01:20 | 33.94210 | -118.41311 | 123 ft | 19 kts | 355° |
| 2026-04-21 01:20 | 33.94285 | -118.41259 | 123 ft | 13 kts | 1° |
| 2026-04-21 01:20 | 33.94354 | -118.41323 | 125 ft | 14 kts | 289° |
| 2026-04-21 01:21 | 33.94347 | -118.41436 | 126 ft | 6 kts | 263° |
| 2026-04-21 01:21 | 33.94347 | -118.41438 | 126 ft | 0 kts | 263° |